Terminal Aerodrome Forecast
Issued by NWS

Home | Current Version | Previous Version | Text Only | Print | Product List | Glossary On
Versions: 1 2 3 4 5 6 7 8 9 10 11 12 13 14 15 16 17 18 19 20 21 22 23 24 25 26
000
FTUS45 KVEF 182100 AAA
TAFLAS
TAF AMD
KLAS 182106Z 1821/1918 17012G20KT P6SM FEW100 BKN150 OVC200
     FM190500 19009KT P6SM SCT100 BKN150
     FM191100 VRB05KT P6SM SCT100 BKN150
     FM191500 05006KT P6SM SCT100 BKN150=

USA.gov is the U.S. government's official web portal to all federal, state and local government web resources and services.